Abilene, Kansas
Current Conditions -  °F | °C
As of 9:53 AM on Friday 24 Oct 2014 (Local Time) from KSLN Reporting Station
Haze Haze  
Wind Chill: 62°   Ceiling: Unl
Heat Index: 62°   Visibility: 4mi
Dew Point: 59°   Wind: 10mph
Humidity: 90%   Direction: 200°SSW
Pressure: 30.03"   Gusts: NA
Location:  38.92°N, 97.21°W
Report Text: KSLN 241453Z 20009KT 4SM BR SCT005 17/15 A3003 RMK AO2 SLP164 T01670150 53005
Loading
Personal Weather Stations






























Interactive Weather Map New forecast layout! Learn more

10-Day Weather Forecast

Advertisements
Track Severe Weather on mobile